LIMC METAR and TAF | Updated Today

LIMC METAR

Malpensa International Airport

Observation time: 27 min. ago

LIMC 251950Z 27005KT CAVOK 22/16 Q1016 NOSIG

Need help? Read our tutorial on how to read METARs or read the parsed version below.

Malpensa International Airport (LIMC) METAR

  • Weather conditions on Wed, 25 May 2022 19:50:00 +0000 (27 min. ago):
  • Present conditions: Dry
  • Clouds: Clear skies
  • Visibility: Greater than 10 km
  • Wind: 270 degrees at 5 knots
  • Temperature: 22 celsius
  • Dew point: 16 celsius
  • Pressure: 1016 millibars
  • Remarks: None


Useful to know...

LIMC TAF

Malpensa International Airport

TAF AMD LIMC 251728Z 2518/2624 35007KT 9999 SCT040 BECMG 2607/2609 12010KT BECMG 2615/2617 VRB05KT
Observation time: 2:49 hr. ago
Need help? Read our tutorial on how to read TAFs or read the parsed version below.

Parsed version of TAF for Malpensa International Airport (LIMC)

  • From 25 May at 18:00 UTC, to day 26 of the month at 24:00 UTC
  • Clouds: Scattered at 1219 meters
  • Visibility: Greater than 10 km
  • Wind: 350 degrees at 7
  • Expected to arise soon, from 26 May at 07:00 UTC, to day 26 of the month at 09:00 UTC
  • Wind: 120 degrees at 10
  • Expected to arise soon, from 26 May at 15:00 UTC, to day 26 of the month at 17:00 UTC
  • Wind: Variable at 5